Santa Rosa Valley, California
Current Conditions -  °F | °C
As of 8:55 PM on Thursday 30 Oct 2014 (Local Time) from KCMA Reporting Station
Clear Clear  
Wind Chill: 63°   Ceiling: Unl
Heat Index: 63°   Visibility: 10mi
Dew Point: 58°   Wind: 5mph
Humidity: 84%   Direction: 140°SE
Pressure: 29.95"   Gusts: NA
Location:  34.1954°N, 119.003°W
Report Text: KCMA 310355Z 14004KT 10SM CLR 17/14 A2995 RMK AO2 SLP148 T01720144
Loading
Personal Weather Stations






























Interactive Weather Map
Tropical Storm Tracking
New forecast layout! Learn more

10-Day Weather Forecast

Advertisements
Track Severe Weather on mobile